Garryowen, MT

1:06 AM MDT on October 24, 2014 (GMT -0600)
Sheridan County | Change Station
CLOSE
Current Station
Airport
Location: Sheridan,
Elevation: 3967 ft
Nearby Weather Stations

Elev 3967 ft 44.76 °N, 106.97 °W | Updated 13 minutes ago

Clear
Clear
44 °F
Feels Like 42 °F
N
5
Wind Variable Wind from WSW

Today
High -- | Low -- °F
--% Chance of Precip.
Yesterday
High -- | Low -- °F
Precip. -- in
7:37 AM 6:08 PM
New Moon, 0% visible
Pressure 29.88 in
Visibility 10.0 miles
Clouds Clear
Windchill 42 °F
Dew Point 30 °F
Humidity 58%
Rainfall 0.02 in
Snow Depth Not available.
UV 0 out of 12
Pollen 1.80 out of 12
Air Quality Not available.
Flu Activity No Activity
METAR KSHR 240653Z AUTO 24004KT 10SM CLR 07/M01 A2993 RMK AO2 SLP118 T00671011 402391011 TSNO

More Conditions Fewer Conditions

Pressure 29.88 in
Visibility 10.0 miles
Clouds Clear
Windchill 42 °F
Dew Point 30 °F
Humidity 58%
Rainfall 0.02 in
Snow Depth Not available.
UV 0 out of 12
Pollen 1.80 out of 12
Air Quality Not available.
Flu Activity No Activity
METAR KSHR 240653Z AUTO 24004KT 10SM CLR 07/M01 A2993 RMK AO2 SLP118 T00671011 402391011 TSNO

More Conditions Fewer Conditions

10-Day Weather Forecast

Almanac

Astronomy

Oct. 24, 2014 Rise Set
Actual Time 7:37 AM MDT 6:08 PM MDT
Civil Twilight 7:07 AM MDT 6:38 PM MDT
Nautical Twilight 6:32 AM MDT 7:13 PM MDT
Astronomical Twilight 5:58 AM MDT 7:47 PM MDT
Moon 8:21 AM MDT 6:47 PM MDT
Length of Visible Light 11h 31m
Length of Day
10h 30m
Tomorrow will be 2m 59s shorter.
New Moon, 0% of the Moon is Illuminated
Today
New Moon
Oct 30
First Quarter
Nov 6
Full
Nov 14
Last Quarter
Nov 22
New

Today's Extremes

State Highs State Lows

Community

WunderPhotos

Upload Photos

1,764,510 photos uploaded!

WunderBlogs® & News

Nearby

Snow Depth

Station Depth Elevation
Burnt Mountain 0 in 5880 ft
Fisher Creek 1 in 9100 ft
Northeast Entrance 0 in 7350 ft
Placer Basin 0 in 8830 ft
Crystal Lake 1 in 6050 ft

Earthquake Activity

City Distance Mag. Time & Date
No recent earthquake activity has been reported nearby.
Minimum magnitude displayed is 2.5.

Coastal Water Temperatures

Place Temperature
No Stations Reporting

Nearby Weather Stations